Terminal Aerodrome Forecast
Issued by NWS Charleston, WV

Current Version | Previous Version | Text Only | Print | Product List | Glossary Off
Versions: 1 2 3 4 5 6 7 8 9 10 11 12 13 14 15 16 17 18 19 20

000
FTUS41 KRLX 031513 AAA
TAFPKB
TAF AMD
KPKB 031513Z 0315/0412 18010G16KT P6SM SCT050 BKN100
     FM032000 22011G18KT P6SM SCT060
     FM040700 26007KT P6SM BKN025=

USA.gov is the U.S. government's official web portal to all federal, state and local government web resources and services.